Time;durP1;ratioP1;P1;durP2;ratioP2;P2;SDS_P1;SDS_P2;PMS_P1;PMS_P2;Temp;Humidity;BMP_temperature;BMP_pressure;BME280_temperature;BME280_humidity;BME280_pressure;Samples;Min_cycle;Max_cycle;Signal;HPM_P1;HPM_P2
2023/02/28 00:01:37;;;;;;;3.83;1.88;;;0.80;99.90;;;;;;4997294;28;20486;-83
2023/02/28 00:04:04;;;;;;;3.28;1.58;;;0.90;99.90;;;;;;4996663;28;20046;-83
2023/02/28 00:06:30;;;;;;;3.50;1.80;;;0.90;99.90;;;;;;5001624;28;20042;-82
2023/02/28 00:08:57;;;;;;;2.70;1.60;;;1.00;99.90;;;;;;5001821;28;20038;-82
2023/02/28 00:11:23;;;;;;;3.22;1.48;;;1.10;99.90;;;;;;4982011;28;20050;-82
2023/02/28 00:13:51;;;;;;;2.97;1.40;;;1.30;99.90;;;;;;4998105;28;20046;-82
2023/02/28 00:16:20;;;;;;;2.60;1.50;;;1.40;99.90;;;;;;5002391;28;20136;-82
2023/02/28 00:18:49;;;;;;;3.20;1.63;;;1.50;99.90;;;;;;4987215;28;20121;-82
2023/02/28 00:21:17;;;;;;;3.35;1.58;;;1.60;99.90;;;;;;4987911;28;20060;-82
2023/02/28 00:23:45;;;;;;;2.28;1.38;;;1.70;99.90;;;;;;4997731;28;21895;-82
2023/02/28 00:26:11;;;;;;;3.30;1.50;;;1.70;99.90;;;;;;4982049;28;20053;-82
2023/02/28 00:28:36;;;;;;;4.28;1.40;;;1.70;99.90;;;;;;4986964;28;20061;-82
2023/02/28 00:31:03;;;;;;;3.00;1.48;;;1.70;99.90;;;;;;4999890;28;20042;-81
2023/02/28 00:33:29;;;;;;;3.05;1.30;;;1.70;99.90;;;;;;4996768;28;20034;-83
2023/02/28 00:36:06;;;;;;;2.33;1.38;;;1.70;99.90;;;;;;4998874;28;20042;-83
2023/02/28 00:38:38;;;;;;;3.15;1.50;;;1.80;99.90;;;;;;4997609;28;20049;-83
2023/02/28 00:41:04;;;;;;;2.30;1.35;;;1.80;99.90;;;;;;4982743;28;20053;-83
2023/02/28 00:43:35;;;;;;;2.40;1.65;;;1.80;99.90;;;;;;4985694;28;20120;-81
2023/02/28 00:46:01;;;;;;;3.40;1.50;;;1.90;99.90;;;;;;4997337;28;20117;-83
2023/02/28 00:48:28;;;;;;;3.03;1.70;;;1.90;99.90;;;;;;5001984;28;20038;-82
2023/02/28 00:50:56;;;;;;;4.38;3.50;;;2.00;99.90;;;;;;4982713;28;20159;-83
2023/02/28 00:53:23;;;;;;;4.07;1.92;;;2.00;99.90;;;;;;4998511;28;20038;-82
2023/02/28 00:55:50;;;;;;;4.60;2.28;;;2.10;99.90;;;;;;4997535;28;20037;-83
2023/02/28 00:58:19;;;;;;;3.42;2.20;;;2.20;99.90;;;;;;4997886;28;20030;-83
2023/02/28 01:00:48;;;;;;;5.07;2.17;;;2.20;99.90;;;;;;5001347;28;20053;-82
2023/02/28 01:03:17;;;;;;;3.63;1.95;;;2.20;99.90;;;;;;5001244;28;20049;-81
2023/02/28 01:05:43;;;;;;;5.07;1.80;;;2.30;99.90;;;;;;4996069;28;22042;-81
2023/02/28 01:08:09;;;;;;;3.75;1.65;;;2.30;99.90;;;;;;5001423;28;20128;-80
2023/02/28 01:10:38;;;;;;;5.57;2.00;;;2.30;99.90;;;;;;5001580;28;20038;-82
2023/02/28 01:13:06;;;;;;;5.15;1.90;;;2.40;99.90;;;;;;4995665;28;20124;-81
2023/02/28 01:15:51;;;;;;;3.60;1.98;;;2.40;99.90;;;;;;5000347;28;20058;-82
2023/02/28 01:18:17;;;;;;;3.50;1.92;;;2.50;99.90;;;;;;4988256;28;20044;-82
2023/02/28 01:20:43;;;;;;;2.97;1.50;;;2.50;99.90;;;;;;5003498;28;20045;-82
2023/02/28 01:23:09;;;;;;;3.55;1.92;;;2.50;99.90;;;;;;5001676;28;20034;-82
2023/02/28 01:25:36;;;;;;;4.63;1.80;;;2.50;99.90;;;;;;5001774;28;20743;-82
2023/02/28 01:28:01;;;;;;;4.20;1.95;;;2.60;99.90;;;;;;5004042;28;20040;-82
2023/02/28 01:30:30;;;;;;;4.90;1.95;;;2.50;99.90;;;;;;5002761;28;20030;-82
2023/02/28 01:32:56;;;;;;;3.63;1.80;;;2.60;99.90;;;;;;5001901;28;20115;-81
2023/02/28 01:35:28;;;;;;;5.25;2.10;;;2.60;99.90;;;;;;5003468;28;20473;-82
2023/02/28 01:37:57;;;;;;;4.57;2.13;;;2.60;99.90;;;;;;4984183;28;20133;-82
2023/02/28 01:40:28;;;;;;;3.17;1.85;;;2.60;99.90;;;;;;4996807;28;20151;-82
2023/02/28 01:43:24;;;;;;;4.10;1.75;;;2.60;99.90;;;;;;5013033;28;20096;-83
2023/02/28 01:45:55;;;;;;;3.65;1.85;;;2.60;99.90;;;;;;4990988;28;20156;-83
2023/02/28 01:48:27;;;;;;;4.43;2.00;;;2.60;99.90;;;;;;5000330;28;20049;-82
2023/02/28 01:50:57;;;;;;;2.72;1.70;;;2.60;99.90;;;;;;4999533;28;20034;-82
2023/02/28 01:53:47;;;;;;;4.10;2.15;;;2.60;99.90;;;;;;5017311;28;20099;-82
2023/02/28 01:56:26;;;;;;;3.58;2.05;;;2.60;99.90;;;;;;5017385;28;20045;-82
2023/02/28 01:58:54;;;;;;;3.58;1.88;;;2.60;99.90;;;;;;5015879;28;20087;-83
2023/02/28 02:01:28;;;;;;;4.20;2.08;;;2.60;99.90;;;;;;5000435;28;20084;-83
2023/02/28 02:04:00;;;;;;;4.80;2.30;;;2.50;99.90;;;;;;5002728;28;20122;-83
2023/02/28 02:06:36;;;;;;;3.50;2.07;;;2.60;99.90;;;;;;5004132;28;20042;-83
2023/02/28 02:09:06;;;;;;;3.75;2.00;;;2.50;99.90;;;;;;5017724;28;20044;-83
2023/02/28 02:11:35;;;;;;;4.38;1.80;;;2.50;99.90;;;;;;5001017;28;20061;-82
2023/02/28 02:14:34;;;;;;;4.20;1.95;;;2.50;99.90;;;;;;4999079;28;20405;-82
2023/02/28 02:17:35;;;;;;;3.38;1.90;;;2.50;99.90;;;;;;5005020;28;20033;-83
2023/02/28 02:20:13;;;;;;;5.78;2.10;;;2.60;99.90;;;;;;5005268;28;20030;-82
2023/02/28 02:23:16;;;;;;;4.05;1.80;;;2.60;99.90;;;;;;5001373;28;20079;-82
2023/02/28 02:25:56;;;;;;;4.25;1.90;;;2.60;99.90;;;;;;4998713;28;20034;-83
2023/02/28 02:28:41;;;;;;;3.58;1.75;;;2.50;99.90;;;;;;5003900;28;20178;-83
2023/02/28 02:31:06;;;;;;;3.63;2.00;;;2.60;99.90;;;;;;4999747;28;20041;-82
2023/02/28 02:34:14;;;;;;;3.80;1.77;;;2.60;99.90;;;;;;5004450;28;20071;-82
2023/02/28 02:36:52;;;;;;;3.97;2.20;;;2.60;99.90;;;;;;4980519;28;20072;-82
2023/02/28 02:39:40;;;;;;;4.53;2.20;;;2.60;99.90;;;;;;5001683;28;20137;-82
2023/02/28 02:42:18;;;;;;;6.07;2.10;;;2.60;99.90;;;;;;5015209;28;20057;-82
2023/02/28 02:45:03;;;;;;;3.75;1.80;;;2.60;99.90;;;;;;4997588;28;20095;-82
2023/02/28 02:47:37;;;;;;;4.47;1.77;;;2.70;99.90;;;;;;5009388;28;20036;-82
2023/02/28 02:50:08;;;;;;;;;;;2.70;99.90;;;;;;4998171;28;20036;-82
2023/02/28 02:52:48;;;;;;;3.70;1.65;;;2.70;99.90;;;;;;5017324;28;19913;-82
2023/02/28 02:55:15;;;;;;;3.88;1.50;;;2.70;99.90;;;;;;4996597;28;20487;-82
2023/02/28 02:58:01;;;;;;;2.72;1.67;;;2.70;99.90;;;;;;5016358;28;20041;-82
2023/02/28 03:00:32;;;;;;;2.80;1.50;;;2.70;99.90;;;;;;5016046;28;20048;-82
2023/02/28 03:02:59;;;;;;;4.13;1.75;;;2.70;99.90;;;;;;5015295;28;20046;-84
2023/02/28 03:05:41;;;;;;;2.08;1.30;;;2.70;99.90;;;;;;4997571;28;20029;-82
2023/02/28 03:08:13;;;;;;;2.70;1.50;;;2.70;99.90;;;;;;5003750;28;20037;-81
2023/02/28 03:10:50;;;;;;;2.55;1.45;;;2.70;99.90;;;;;;4997381;28;20432;-82
2023/02/28 03:13:52;;;;;;;2.25;1.48;;;2.70;99.90;;;;;;4998958;28;20045;-82
2023/02/28 03:16:45;;;;;;;3.53;1.83;;;2.70;99.90;;;;;;4997659;28;20030;-82
2023/02/28 03:19:58;;;;;;;3.35;1.67;;;2.70;99.90;;;;;;4998902;28;20213;-83
2023/02/28 03:22:59;;;;;;;3.17;1.35;;;2.70;99.90;;;;;;5011286;28;20718;-82
2023/02/28 03:26:00;;;;;;;4.32;1.88;;;2.70;99.90;;;;;;4999500;28;20041;-81
2023/02/28 03:28:54;;;;;;;2.50;1.50;;;2.70;99.90;;;;;;4984571;28;20033;-82
2023/02/28 03:31:28;;;;;;;3.35;1.50;;;2.70;99.90;;;;;;5024451;28;20038;-81
2023/02/28 03:34:00;;;;;;;3.35;1.30;;;2.60;99.90;;;;;;5025682;28;20044;-81
2023/02/28 03:36:31;;;;;;;2.97;1.40;;;2.70;99.90;;;;;;5008438;28;20049;-81
2023/02/28 03:39:17;;;;;;;2.95;1.60;;;2.70;99.90;;;;;;5014649;28;20041;-83
2023/02/28 03:41:53;;;;;;;3.42;1.65;;;2.60;99.90;;;;;;5007370;28;20044;-81
2023/02/28 03:44:28;;;;;;;3.40;1.63;;;2.60;99.90;;;;;;5004711;28;20104;-82
2023/02/28 03:47:38;;;;;;;2.15;1.27;;;2.70;99.90;;;;;;4990723;28;20046;-82
2023/02/28 03:50:24;;;;;;;3.33;1.50;;;2.60;99.90;;;;;;4988954;28;20728;-82
2023/02/28 03:53:06;;;;;;;3.80;1.65;;;2.60;99.90;;;;;;4998146;28;20033;-82
2023/02/28 03:55:42;;;;;;;3.08;1.52;;;2.70;99.90;;;;;;5004028;28;20046;-81
2023/02/28 03:58:38;;;;;;;4.68;1.70;;;2.60;99.90;;;;;;4999442;28;20030;-82
2023/02/28 04:01:25;;;;;;;4.82;2.00;;;2.70;99.90;;;;;;4998152;28;20113;-82
2023/02/28 04:03:51;;;;;;;2.50;1.60;;;2.60;99.90;;;;;;4998100;28;20039;-82
2023/02/28 04:06:28;;;;;;;4.20;2.17;;;2.60;99.90;;;;;;5003704;28;20043;-83
2023/02/28 04:09:00;;;;;;;3.20;1.88;;;2.60;99.90;;;;;;4997327;28;20106;-82
2023/02/28 04:11:51;;;;;;;3.13;1.48;;;2.60;99.90;;;;;;4997592;28;20038;-81
2023/02/28 04:14:22;;;;;;;2.22;1.30;;;2.60;99.90;;;;;;5003707;28;20045;-81
2023/02/28 04:16:50;;;;;;;4.78;2.00;;;2.60;99.90;;;;;;5003217;28;20046;-81
2023/02/28 04:19:22;;;;;;;2.42;1.27;;;2.60;99.90;;;;;;5002988;28;20711;-81
2023/02/28 04:21:50;;;;;;;3.85;1.52;;;2.60;99.90;;;;;;5003439;28;20081;-81
2023/02/28 04:24:23;;;;;;;3.10;1.50;;;2.60;99.90;;;;;;4998257;28;20089;-82
2023/02/28 04:26:56;;;;;;;2.78;1.40;;;2.50;99.90;;;;;;4999124;28;20049;-82
2023/02/28 04:29:31;;;;;;;4.38;1.48;;;2.50;99.90;;;;;;5003000;28;20034;-81
2023/02/28 04:31:58;;;;;;;2.22;1.40;;;2.50;99.90;;;;;;5003298;28;20038;-81
2023/02/28 04:34:31;;;;;;;2.55;1.20;;;2.50;99.90;;;;;;5002301;28;20516;-82
2023/02/28 04:37:02;;;;;;;3.22;1.38;;;2.50;99.90;;;;;;4996897;28;20157;-81
2023/02/28 04:39:35;;;;;;;1.92;0.95;;;2.50;99.90;;;;;;4997400;28;20041;-81
2023/02/28 04:42:07;;;;;;;2.55;1.00;;;2.60;99.90;;;;;;4998577;28;20038;-82
2023/02/28 04:44:36;;;;;;;1.42;0.80;;;2.60;99.90;;;;;;5001606;28;20046;-82
2023/02/28 04:47:05;;;;;;;2.17;1.10;;;2.60;99.90;;;;;;4996619;28;20045;-82
2023/02/28 04:49:37;;;;;;;3.33;1.25;;;2.50;99.90;;;;;;4998981;28;20030;-82
2023/02/28 04:52:03;;;;;;;2.38;0.85;;;2.50;99.90;;;;;;4996470;28;20063;-82
2023/02/28 04:54:29;;;;;;;1.08;0.70;;;2.50;99.90;;;;;;5003013;28;20448;-82
2023/02/28 04:56:58;;;;;;;2.10;0.93;;;2.50;99.90;;;;;;5001490;28;20042;-83
2023/02/28 04:59:24;;;;;;;2.22;1.00;;;2.50;99.90;;;;;;4996841;28;20480;-81
2023/02/28 05:01:53;;;;;;;2.03;0.95;;;2.40;99.90;;;;;;4996916;28;20048;-83
2023/02/28 05:04:33;;;;;;;2.55;0.95;;;2.40;99.90;;;;;;5002753;28;20045;-83
2023/02/28 05:07:05;;;;;;;2.03;0.90;;;2.40;99.90;;;;;;4996291;28;20378;-83
2023/02/28 05:09:32;;;;;;;2.50;0.90;;;2.40;99.90;;;;;;5011737;28;20038;-83
2023/02/28 05:11:58;;;;;;;1.85;0.98;;;2.30;99.90;;;;;;5001499;28;20128;-82
2023/02/28 05:14:26;;;;;;;1.73;0.82;;;2.30;99.90;;;;;;4997143;28;20133;-83
2023/02/28 05:16:54;;;;;;;2.10;0.90;;;2.30;99.90;;;;;;4996877;28;20034;-82
2023/02/28 05:19:21;;;;;;;1.52;0.90;;;2.30;99.90;;;;;;4995855;28;20042;-82
2023/02/28 05:21:55;;;;;;;1.65;0.90;;;2.30;99.90;;;;;;5001567;28;20085;-82
2023/02/28 05:24:29;;;;;;;2.90;1.05;;;2.30;99.90;;;;;;4981132;28;20042;-82
2023/02/28 05:26:58;;;;;;;3.42;1.20;;;2.30;99.90;;;;;;4994639;28;20046;-81
2023/02/28 05:29:24;;;;;;;1.80;0.85;;;2.30;99.90;;;;;;4996341;28;20037;-82
2023/02/28 05:31:50;;;;;;;2.60;0.98;;;2.30;99.90;;;;;;4996984;28;20042;-83
2023/02/28 05:34:18;;;;;;;1.45;0.90;;;2.20;99.90;;;;;;5002550;28;20046;-82
2023/02/28 05:36:46;;;;;;;1.73;0.75;;;2.30;99.90;;;;;;4984841;28;20114;-82
2023/02/28 05:39:12;;;;;;;2.00;1.00;;;2.20;99.90;;;;;;4994817;28;20038;-81
2023/02/28 05:41:40;;;;;;;2.22;1.00;;;2.20;99.90;;;;;;4998493;28;20042;-81
2023/02/28 05:44:06;;;;;;;1.63;0.77;;;2.20;99.90;;;;;;5000273;28;20061;-82
2023/02/28 05:46:38;;;;;;;2.40;0.82;;;2.20;99.90;;;;;;5002027;28;20386;-82
2023/02/28 05:49:05;;;;;;;2.05;0.93;;;2.20;99.90;;;;;;5000585;28;20478;-82
2023/02/28 05:51:36;;;;;;;1.85;0.88;;;2.20;99.90;;;;;;5005847;28;20056;-82
2023/02/28 05:54:04;;;;;;;1.25;0.60;;;2.20;99.90;;;;;;5001800;28;20164;-83
2023/02/28 05:56:30;;;;;;;1.70;0.80;;;2.20;99.90;;;;;;5003998;28;20125;-81
2023/02/28 05:59:10;;;;;;;2.40;0.90;;;2.20;99.90;;;;;;5003230;28;20133;-83
2023/02/28 06:01:41;;;;;;;2.35;0.88;;;2.20;99.90;;;;;;5001235;28;20034;-81
2023/02/28 06:04:10;;;;;;;2.80;0.80;;;2.20;99.90;;;;;;5002187;28;20052;-82
2023/02/28 06:06:43;;;;;;;2.05;0.70;;;2.20;99.90;;;;;;4997327;28;20096;-82
2023/02/28 06:09:10;;;;;;;0.80;0.67;;;2.20;99.90;;;;;;4995189;28;20086;-84
2023/02/28 06:11:41;;;;;;;1.65;0.70;;;2.20;99.90;;;;;;4996576;28;20164;-82
2023/02/28 06:14:07;;;;;;;1.42;0.75;;;2.20;99.90;;;;;;4994570;28;20054;-81
2023/02/28 06:16:36;;;;;;;1.27;0.70;;;2.20;99.90;;;;;;4996042;28;20042;-82
2023/02/28 06:19:03;;;;;;;1.60;1.00;;;2.20;99.90;;;;;;5011030;28;20100;-81
2023/02/28 06:21:30;;;;;;;1.75;0.90;;;2.30;99.90;;;;;;5001358;28;20125;-81
2023/02/28 06:23:57;;;;;;;1.70;0.85;;;2.20;99.90;;;;;;5000067;28;20320;-82
2023/02/28 06:26:23;;;;;;;2.03;1.10;;;2.20;99.90;;;;;;4998689;28;20555;-83
2023/02/28 06:28:49;;;;;;;1.88;1.00;;;2.30;99.90;;;;;;4994435;28;20173;-82
2023/02/28 06:31:24;;;;;;;2.05;1.00;;;2.30;99.90;;;;;;4996500;28;20042;-82
2023/02/28 06:33:50;;;;;;;2.00;0.90;;;2.30;99.90;;;;;;4995324;28;20544;-83
2023/02/28 06:36:19;;;;;;;1.77;0.90;;;2.20;99.90;;;;;;5001018;28;20048;-82
2023/02/28 06:38:45;;;;;;;1.77;0.85;;;2.30;99.90;;;;;;4995431;28;20478;-82
2023/02/28 06:41:11;;;;;;;2.05;0.85;;;2.40;99.90;;;;;;4993875;28;20029;-82
2023/02/28 06:43:41;;;;;;;1.80;1.00;;;2.40;99.90;;;;;;4998869;28;20500;-83
2023/02/28 06:46:10;;;;;;;1.45;0.70;;;2.40;99.90;;;;;;4999044;28;20037;-82
2023/02/28 06:48:37;;;;;;;1.65;0.80;;;2.50;99.90;;;;;;5015090;28;20056;-83
2023/02/28 06:51:20;;;;;;;1.75;0.90;;;2.40;99.90;;;;;;5015961;28;20128;-83
2023/02/28 06:53:48;;;;;;;1.77;0.85;;;2.50;99.90;;;;;;4998051;28;20038;-82
2023/02/28 06:56:16;;;;;;;1.50;0.85;;;2.50;99.90;;;;;;4997719;28;20046;-82
2023/02/28 06:58:49;;;;;;;1.45;0.88;;;2.50;99.90;;;;;;5004541;28;20040;-83
2023/02/28 07:01:15;;;;;;;1.50;0.70;;;2.60;99.90;;;;;;4989013;28;20045;-81
2023/02/28 07:03:41;;;;;;;2.55;0.90;;;2.60;99.90;;;;;;5019959;28;20044;-82
2023/02/28 07:06:12;;;;;;;2.25;0.98;;;2.60;99.90;;;;;;5007495;28;20037;-82
2023/02/28 07:08:39;;;;;;;1.20;0.70;;;2.70;99.90;;;;;;4985742;28;20042;-82
2023/02/28 07:11:09;;;;;;;1.75;0.90;;;2.70;99.90;;;;;;5007419;28;20496;-82
2023/02/28 07:13:38;;;;;;;1.40;0.90;;;2.80;99.90;;;;;;5002823;28;20044;-82
2023/02/28 07:16:09;;;;;;;2.20;1.00;;;2.80;99.90;;;;;;5019506;28;20484;-82
2023/02/28 07:18:38;;;;;;;2.33;1.10;;;2.80;99.90;;;;;;5020169;28;20072;-82
2023/02/28 07:21:09;;;;;;;2.17;1.00;;;2.90;99.90;;;;;;5017709;28;20041;-82
2023/02/28 07:23:38;;;;;;;2.42;1.17;;;2.90;99.90;;;;;;4991363;28;20049;-82
2023/02/28 07:26:14;;;;;;;1.77;0.88;;;3.00;99.90;;;;;;5007051;28;20036;-82
2023/02/28 07:28:42;;;;;;;1.80;1.20;;;3.00;99.90;;;;;;5002198;28;20033;-82
2023/02/28 07:31:19;;;;;;;2.60;1.30;;;3.00;99.90;;;;;;5000538;28;20124;-81
2023/02/28 07:33:48;;;;;;;2.58;1.20;;;3.00;99.90;;;;;;5007643;28;20034;-82
2023/02/28 07:36:20;;;;;;;2.85;1.20;;;3.00;99.90;;;;;;5006148;28;20072;-82
2023/02/28 07:38:49;;;;;;;2.60;1.40;;;3.00;99.90;;;;;;5001934;28;20036;-82
2023/02/28 07:41:24;;;;;;;3.42;1.30;;;2.90;99.90;;;;;;4985118;28;20049;-81
2023/02/28 07:44:00;;;;;;;3.53;1.40;;;2.90;99.90;;;;;;5000564;28;20512;-82
2023/02/28 07:46:34;;;;;;;2.03;1.10;;;2.80;99.90;;;;;;5002368;28;20045;-81
2023/02/28 07:49:08;;;;;;;3.50;1.50;;;2.80;99.90;;;;;;5021091;28;20034;-82
2023/02/28 07:51:53;;;;;;;3.17;1.60;;;2.90;99.90;;;;;;5007850;28;20444;-83
2023/02/28 07:54:19;;;;;;;3.47;1.30;;;3.00;99.90;;;;;;5001019;28;20029;-82
2023/02/28 07:56:50;;;;;;;2.42;1.50;;;3.00;99.90;;;;;;4989581;28;20066;-83
2023/02/28 07:59:20;;;;;;;3.78;1.40;;;3.00;99.90;;;;;;5008514;28;20041;-82
2023/02/28 08:01:58;;;;;;;5.20;1.73;;;2.90;99.90;;;;;;5006768;28;20060;-82
2023/02/28 08:04:28;;;;;;;3.38;1.73;;;2.90;99.90;;;;;;5008632;28;20128;-81
2023/02/28 08:07:19;;;;;;;4.57;2.03;;;2.90;99.90;;;;;;5006919;28;20623;-83
2023/02/28 08:09:47;;;;;;;4.15;1.88;;;2.90;99.90;;;;;;5009430;28;20038;-83
2023/02/28 08:12:17;;;;;;;3.22;1.92;;;2.90;99.90;;;;;;5011241;28;20038;-83
2023/02/28 08:14:46;;;;;;;4.38;1.83;;;2.90;99.90;;;;;;5026457;28;20532;-82
2023/02/28 08:17:16;;;;;;;3.90;2.00;;;2.90;99.90;;;;;;5012023;28;20034;-83
2023/02/28 08:19:46;;;;;;;2.30;1.60;;;2.90;99.90;;;;;;5007055;28;20500;-83
2023/02/28 08:22:14;;;;;;;4.35;1.75;;;2.80;99.90;;;;;;5021001;28;20037;-83
2023/02/28 08:24:43;;;;;;;3.30;1.60;;;2.80;99.90;;;;;;4999896;28;20053;-82
2023/02/28 08:27:13;;;;;;;3.33;1.70;;;2.80;99.90;;;;;;5002162;28;20033;-83
2023/02/28 08:29:43;;;;;;;2.88;1.55;;;2.90;99.90;;;;;;5002483;28;20030;-81
2023/02/28 08:32:17;;;;;;;2.83;1.77;;;2.90;99.90;;;;;;5000335;28;20073;-82
2023/02/28 08:34:43;;;;;;;3.67;1.65;;;2.90;99.90;;;;;;5000746;28;20461;-81
2023/02/28 08:37:22;;;;;;;3.38;1.30;;;2.90;99.90;;;;;;5017319;28;20061;-82
2023/02/28 08:39:50;;;;;;;2.08;1.20;;;3.00;99.90;;;;;;5019768;28;20497;-83
2023/02/28 08:42:18;;;;;;;2.97;1.20;;;3.10;99.90;;;;;;4984344;28;20042;-82
2023/02/28 08:44:44;;;;;;;2.55;1.20;;;3.10;99.90;;;;;;5002776;28;20124;-83
2023/02/28 08:47:10;;;;;;;3.30;1.40;;;3.20;99.90;;;;;;4999290;28;20825;-82
2023/02/28 08:49:39;;;;;;;2.33;1.38;;;3.20;99.90;;;;;;4998677;28;20088;-82
2023/02/28 08:52:07;;;;;;;2.30;1.15;;;3.30;99.90;;;;;;4997129;28;20655;-83
2023/02/28 08:54:34;;;;;;;2.85;1.27;;;3.40;99.90;;;;;;4995337;28;20398;-83
2023/02/28 08:57:06;;;;;;;1.98;1.20;;;3.50;99.90;;;;;;4996644;28;20034;-82
2023/02/28 08:59:40;;;;;;;2.60;1.13;;;3.50;99.90;;;;;;4999057;28;20042;-82
2023/02/28 09:02:15;;;;;;;2.38;1.00;;;3.50;99.90;;;;;;4996285;28;20077;-82
2023/02/28 09:04:48;;;;;;;1.85;1.10;;;3.60;99.90;;;;;;4996019;28;20042;-85
2023/02/28 09:07:20;;;;;;;4.13;1.02;;;3.70;99.90;;;;;;5001370;28;20058;-82
2023/02/28 09:09:57;;;;;;;3.35;1.08;;;3.70;99.90;;;;;;4998875;28;20034;-82
2023/02/28 09:12:25;;;;;;;1.80;1.05;;;3.80;99.90;;;;;;4997370;28;20036;-83
2023/02/28 09:15:00;;;;;;;2.30;1.08;;;3.80;99.90;;;;;;4995941;28;20513;-84
2023/02/28 09:17:36;;;;;;;1.67;1.17;;;3.90;99.90;;;;;;4997769;28;20038;-84
2023/02/28 09:20:05;;;;;;;2.60;1.17;;;4.00;99.90;;;;;;5001079;28;21972;-82
2023/02/28 09:22:32;;;;;;;2.63;0.98;;;4.00;99.90;;;;;;4999942;28;20053;-82
2023/02/28 09:24:58;;;;;;;2.72;1.17;;;4.10;99.90;;;;;;4993494;28;20545;-82
2023/02/28 09:27:23;;;;;;;1.73;1.15;;;4.20;99.90;;;;;;5001002;28;20037;-81
2023/02/28 09:29:58;;;;;;;1.63;1.10;;;4.30;99.90;;;;;;5013106;28;20048;-82
2023/02/28 09:33:30;;;;;;;2.22;0.98;;;4.40;99.90;;;;;;4998083;28;20042;-83
2023/02/28 09:36:26;;;;;;;2.53;1.23;;;5.10;99.90;;;;;;4942178;28;20588;-82
2023/02/28 09:39:00;;;;;;;3.08;1.10;;;7.30;99.90;;;;;;4995820;28;20061;-84
2023/02/28 09:41:50;;;;;;;1.73;0.70;;;9.20;99.90;;;;;;4996746;28;20048;-83
2023/02/28 09:44:49;;;;;;;1.67;0.75;;;10.50;99.90;;;;;;4966754;28;20065;-84
2023/02/28 09:47:35;;;;;;;3.10;0.90;;;11.90;99.90;;;;;;5000007;28;20046;-84
2023/02/28 09:50:38;;;;;;;1.42;1.00;;;12.60;99.90;;;;;;4997034;28;20153;-83
2023/02/28 09:53:35;;;;;;;1.73;1.02;;;13.40;99.90;;;;;;4909496;29;20046;-83
2023/02/28 09:56:45;;;;;;;1.38;0.80;;;13.90;98.10;;;;;;4910544;29;20043;-83
2023/02/28 09:59:23;;;;;;;2.35;0.80;;;14.20;97.20;;;;;;4994341;28;20109;-83
2023/02/28 10:02:35;;;;;;;1.45;0.82;;;14.50;95.80;;;;;;4995841;28;20482;-83
2023/02/28 10:05:24;;;;;;;2.10;0.90;;;15.00;95.20;;;;;;4948848;28;20038;-83
2023/02/28 10:08:24;;;;;;;1.52;0.70;;;15.60;94.10;;;;;;4985229;28;20398;-84
2023/02/28 10:11:10;;;;;;;2.05;0.82;;;15.90;93.30;;;;;;4996861;28;20501;-84
2023/02/28 10:14:00;;;;;;;2.35;1.10;;;16.30;92.10;;;;;;4996655;28;20089;-84
2023/02/28 10:16:58;;;;;;;2.05;0.90;;;16.60;91.10;;;;;;5003925;28;20034;-82
2023/02/28 10:19:51;;;;;;;1.55;0.73;;;16.70;90.70;;;;;;4985419;28;20041;-82
2023/02/28 10:22:38;;;;;;;1.27;0.77;;;17.00;90.40;;;;;;4996555;28;20116;-83
2023/02/28 10:25:23;;;;;;;1.10;0.70;;;16.20;89.10;;;;;;4995706;28;20049;-84
2023/02/28 10:27:54;;;;;;;1.20;0.75;;;16.10;89.60;;;;;;4996044;28;20041;-83
2023/02/28 10:30:21;;;;;;;0.88;0.70;;;15.80;87.30;;;;;;4984536;28;22313;-82
2023/02/28 10:32:53;;;;;;;1.08;0.70;;;15.80;88.00;;;;;;5000776;28;20045;-82
2023/02/28 10:35:35;;;;;;;1.70;0.80;;;15.70;84.90;;;;;;4977306;28;20085;-83
2023/02/28 10:38:14;;;;;;;2.03;0.65;;;15.50;82.80;;;;;;4999896;28;20127;-83
2023/02/28 10:40:44;;;;;;;1.50;0.80;;;15.50;82.60;;;;;;4999641;28;20417;-83
2023/02/28 10:43:16;;;;;;;1.50;0.98;;;14.90;83.00;;;;;;4999730;28;20041;-83
2023/02/28 10:46:25;;;;;;;1.58;0.75;;;15.30;83.80;;;;;;5003662;28;20137;-82
2023/02/28 10:49:08;;;;;;;1.52;0.93;;;15.70;81.90;;;;;;4998450;28;20065;-84
2023/02/28 10:51:42;;;;;;;1.63;0.80;;;16.30;81.10;;;;;;4988423;28;20065;-83
2023/02/28 10:54:23;;;;;;;1.27;0.73;;;16.90;80.70;;;;;;5001329;28;20112;-82
2023/02/28 10:57:24;;;;;;;1.10;0.85;;;17.40;79.80;;;;;;5001173;28;20049;-85
2023/02/28 11:00:11;;;;;;;1.38;0.80;;;18.00;78.10;;;;;;4998538;28;20084;-83
2023/02/28 11:02:42;;;;;;;6.60;0.85;;;18.00;77.30;;;;;;5003186;28;20057;-83
2023/02/28 11:05:49;;;;;;;;;;;;;;;;;;;;;
2023/02/28 11:08:24;;;;;;;1.30;0.70;;;18.30;75.80;;;;;;4994620;28;20052;-83
2023/02/28 11:11:00;;;;;;;1.73;0.90;;;18.40;76.50;;;;;;5003605;28;20053;-84
2023/02/28 11:13:35;;;;;;;2.25;0.85;;;18.40;75.00;;;;;;4987890;28;20046;-83
2023/02/28 11:16:05;;;;;;;1.70;0.70;;;18.30;73.90;;;;;;4997671;28;20044;-82
2023/02/28 11:18:40;;;;;;;1.83;0.90;;;18.40;74.00;;;;;;4998258;28;20045;-83
2023/02/28 11:21:08;;;;;;;2.10;0.80;;;18.70;73.70;;;;;;5002761;28;20053;-82
2023/02/28 11:23:41;;;;;;;1.42;0.80;;;18.80;75.20;;;;;;4996720;28;20074;-83
2023/02/28 11:26:14;;;;;;;2.67;0.82;;;18.90;73.30;;;;;;5001847;28;20076;-82
2023/02/28 11:29:19;;;;;;;1.42;0.90;;;19.10;72.40;;;;;;4999622;28;20034;-82
2023/02/28 11:32:09;;;;;;;1.70;0.70;;;19.30;71.90;;;;;;5014086;28;20482;-83
2023/02/28 11:34:37;;;;;;;2.15;0.95;;;19.50;72.30;;;;;;4983527;28;20036;-83
2023/02/28 11:37:08;;;;;;;1.80;0.70;;;19.50;70.50;;;;;;4996583;28;20037;-83
2023/02/28 11:39:37;;;;;;;1.73;0.80;;;19.50;69.50;;;;;;5003503;28;20787;-82
2023/02/28 11:42:53;;;;;;;1.83;1.00;;;19.30;70.00;;;;;;4985893;28;20038;-82
2023/02/28 11:45:59;;;;;;;1.83;0.90;;;19.40;71.40;;;;;;5008106;28;20041;-83
2023/02/28 11:48:38;;;;;;;1.80;0.80;;;18.90;69.70;;;;;;4999801;28;20080;-82
2023/02/28 11:51:47;;;;;;;1.13;0.80;;;18.90;69.20;;;;;;5016019;28;20045;-83
2023/02/28 11:54:47;;;;;;;1.20;0.80;;;19.40;68.40;;;;;;4969430;28;20041;-83
2023/02/28 11:57:34;;;;;;;1.73;0.80;;;19.50;67.00;;;;;;5000021;28;20065;-84
2023/02/28 12:00:24;;;;;;;1.00;0.70;;;19.60;66.00;;;;;;5017043;28;20041;-84
2023/02/28 12:03:28;;;;;;;1.00;0.65;;;19.50;65.10;;;;;;5005508;28;20036;-83
2023/02/28 12:06:38;;;;;;;1.25;0.70;;;19.40;65.50;;;;;;5018162;28;20440;-83
2023/02/28 12:09:32;;;;;;;1.67;0.90;;;19.60;64.40;;;;;;5006833;28;20037;-83
2023/02/28 12:12:43;;;;;;;1.52;1.00;;;19.50;63.20;;;;;;5006135;28;20037;-82
2023/02/28 12:15:24;;;;;;;1.23;0.85;;;19.20;63.50;;;;;;5005295;28;20125;-83
2023/02/28 12:18:18;;;;;;;2.42;0.80;;;19.40;63.60;;;;;;5002712;28;20254;-85
2023/02/28 12:21:26;;;;;;;2.00;0.90;;;19.50;63.60;;;;;;5013459;28;20065;-83
2023/02/28 12:24:29;;;;;;;1.85;0.85;;;19.90;63.90;;;;;;4985484;28;20049;-84
2023/02/28 12:27:00;;;;;;;1.17;0.77;;;20.10;63.10;;;;;;5000507;28;20038;-83
2023/02/28 12:29:37;;;;;;;;;;;20.10;63.00;;;;;;5018466;28;20034;-82
2023/02/28 12:32:22;;;;;;;1.20;0.77;;;19.90;63.20;;;;;;5016265;28;19913;-82
2023/02/28 12:35:16;;;;;;;2.08;0.90;;;19.90;62.60;;;;;;5018260;28;20048;-84
2023/02/28 12:38:11;;;;;;;2.17;0.82;;;20.20;63.40;;;;;;5015881;28;20039;-83
2023/02/28 12:40:54;;;;;;;1.80;0.93;;;20.20;63.10;;;;;;4987954;28;20037;-84
2023/02/28 12:43:34;;;;;;;1.33;0.90;;;20.30;63.00;;;;;;4998558;28;20049;-83
2023/02/28 12:46:19;;;;;;;1.58;0.93;;;20.30;62.30;;;;;;4940561;28;1276297;-83
2023/02/28 12:48:56;;;;;;;1.83;1.10;;;20.20;62.10;;;;;;5004687;28;20064;-83
2023/02/28 12:51:36;;;;;;;2.30;1.10;;;20.50;62.50;;;;;;4985207;28;20157;-83
2023/02/28 12:58:21;;;;;;;2.22;1.02;;;20.90;61.40;;;;;;5014894;28;20094;-83
2023/02/28 13:01:27;;;;;;;1.88;1.15;;;20.90;61.00;;;;;;4988318;28;20035;-83
2023/02/28 13:04:30;;;;;;;1.45;1.10;;;20.90;60.70;;;;;;5013624;28;20053;-85
2023/02/28 13:07:41;;;;;;;1.58;1.00;;;20.70;60.00;;;;;;5017607;28;20049;-83
2023/02/28 13:10:10;;;;;;;1.55;1.00;;;20.80;60.10;;;;;;5015995;28;20045;-82
2023/02/28 13:13:07;;;;;;;;;;;;;;;;;;;;;
2023/02/28 13:15:40;;;;;;;2.30;1.02;;;21.10;59.40;;;;;;5000226;28;20044;-82
2023/02/28 13:18:29;;;;;;;1.73;0.80;;;20.90;58.90;;;;;;5016610;28;20109;-82
2023/02/28 13:21:02;;;;;;;2.28;1.00;;;20.70;58.50;;;;;;4999153;28;20521;-82
2023/02/28 13:23:57;;;;;;;1.25;0.80;;;20.60;58.50;;;;;;4972796;28;20065;-83
2023/02/28 13:26:49;;;;;;;1.35;0.70;;;20.40;59.20;;;;;;5015876;28;20033;-83
2023/02/28 13:29:20;;;;;;;1.92;0.90;;;20.40;58.40;;;;;;5000538;28;20400;-83
2023/02/28 13:32:11;;;;;;;2.22;1.25;;;20.40;58.80;;;;;;4998576;28;20037;-82
2023/02/28 13:35:04;;;;;;;1.27;0.90;;;20.60;59.10;;;;;;5004287;28;20037;-83
2023/02/28 13:37:49;;;;;;;1.85;0.90;;;20.50;59.10;;;;;;4998333;28;20519;-83
2023/02/28 13:40:39;;;;;;;1.60;0.90;;;20.50;58.50;;;;;;4999088;28;20041;-83
2023/02/28 13:43:18;;;;;;;2.17;0.88;;;20.20;58.50;;;;;;4999015;28;20037;-84
2023/02/28 13:46:14;;;;;;;1.08;0.80;;;20.20;59.10;;;;;;4992085;28;20050;-83
2023/02/28 13:48:43;;;;;;;1.10;0.77;;;20.20;59.00;;;;;;4995597;28;20065;-83
2023/02/28 13:51:48;;;;;;;1.30;0.70;;;20.10;59.10;;;;;;4995703;28;20121;-83
2023/02/28 13:55:08;;;;;;;2.00;0.93;;;20.20;58.90;;;;;;4978136;28;20050;-82